首页
METAR-TAF:

METAR-TAF

机场 :

伏努科沃國際機場

莫斯科Vnukovo, 俄罗斯

纬度: 55-39N, 经度: 037-16E, 海拔: 203米

当前天气观测

该预报发布于39分钟前的03:00 UTC
风速4节,风向南转西南
温度 -2°C
湿度 93%
气压 1020 hPa
能见度10公里或以上
1500米以下无云,无积雨云

METAR: UUWW 210300Z 20002MPS CAVOK M02/M03 Q1020 R24/000065 NOSIG

时间: 06:39 (03:39 UTC)

预报

该预报发布于1小时和51分钟前的01:48 UTC
预报有效从21日的 03点(UTC)到 22日的 03点(UTC)
风速6节,风向西南
能见度10公里或以上
散云层高于1500英尺
几率 40% :
短暂存在
从 21日的 03点(UTC)到 21日的 06点(UTC)
能見度: 0300
散云层高于200英尺
冻雾

TAF: UUWW 210148Z 2103/2203 22003MPS 9999 SCT015 TX05/2112Z TNM02/2104Z PROB40 TEMPO 2103/2106 0300 FZFG SCT002

超过4000个机场的气象观测和天气预报(METAR&TAF报告)。

可查询的气象台以黄色和红色小点在地图上表示。

将鼠标移到小点上方,可查看气象台名称。

然后点击查看天气观测和预报。

如需切换地图:点击带黑十字的绿色按钮放大地图;点击带横线的绿色按钮缩小地图;或者点击绿色箭头查看邻近地区的地图。


METAR-TAF: